»·PEaware :: DAL108 KLAS-KRNO

DAL108 :: KLAS-KRNO

FLIGHT INFORMATION

Flight Status: Arrived
Operator:
Delta Air Lines
More flights by this operator :: More flights under this callsign
Pilot: Ryan B. (8502)
Aircraft: BOEING 757-200
(B752)
More flights by this aircraft type
Origin: KLAS McCarran Intl
United States
Destination: KRNO Reno/Tahoe Intl
United States
More flights between these airports :: More routes between these airports
Route: SHEAD1 KENNO RUSME2
File this flight plan on PilotEdge
Remarks: SHORTCUTS APPRECIATED
Altitude:
(Current/Filed)
36,000ft
Speed:
(Current/Filed)
453kts
Departed: 08-Oct-18 07:51 PM
Arrived: 08-Oct-18 08:53 PM
Distance/Time
Traveled:
300nm/1:01
Distance/Time
To Go:
Arrived

Flight Plot

Page will automatically refresh every two minutes.

Flight plan parsing failed; only flown route is shown


Map Options




Map Legend


Flown Route
Filed Route
Departure Airport
Arrival Airport
Navaid (VOR, NDB)
Fix

Horizontal Profiles

Position Reports

Time Latitude Longitude Heading Altitude Ground
Speed
08-Oct-18 19:32 36.080391 -115.138848 345 2073ft 0kts
08-Oct-18 19:33 36.080391 -115.138848 345 2073ft 0kts
08-Oct-18 19:34 36.080391 -115.138848 345 2073ft 0kts
08-Oct-18 19:35 36.080391 -115.138848 345 2073ft 0kts
08-Oct-18 19:36 36.080391 -115.138848 345 2073ft 0kts
08-Oct-18 19:37 36.080391 -115.138848 345 2073ft 0kts
08-Oct-18 19:38 36.080391 -115.138848 345 2073ft 0kts
08-Oct-18 19:39 36.080391 -115.138848 345 2073ft 0kts
08-Oct-18 19:40 36.080391 -115.138848 345 2073ft 0kts
08-Oct-18 19:41 36.080391 -115.138848 345 2073ft 0kts
08-Oct-18 19:42 36.080391 -115.138848 345 2073ft 0kts
08-Oct-18 19:43 36.080391 -115.138848 345 2073ft 0kts
08-Oct-18 19:44 36.080391 -115.138848 345 2073ft 0kts
08-Oct-18 19:45 36.080391 -115.138848 345 2073ft 0kts
08-Oct-18 19:46 36.080391 -115.138848 345 2073ft 0kts
08-Oct-18 19:47 36.080391 -115.138848 345 2073ft 0kts
08-Oct-18 19:48 36.080048 -115.138519 292 2073ft 2kts
08-Oct-18 19:49 36.080140 -115.137950 227 2071ft 1kts
08-Oct-18 19:50 36.080147 -115.137941 227 2071ft 0kts
08-Oct-18 19:51 36.080056 -115.138062 227 2071ft 1kts
08-Oct-18 19:52 36.078262 -115.136822 89 2073ft 34kts
08-Oct-18 19:53 36.078265 -115.124124 90 2041ft 44kts
08-Oct-18 19:54 36.077542 -115.121767 125 2041ft 3kts
08-Oct-18 19:55 36.076409 -115.123079 269 2042ft 43kts
08-Oct-18 19:56 36.076309 -115.172015 271 3951ft 181kts
08-Oct-18 19:57 36.076822 -115.232453 270 6556ft 181kts
08-Oct-18 19:58 36.038077 -115.271382 201 8468ft 220kts
08-Oct-18 19:59 35.973981 -115.302648 212 10329ft 286kts
08-Oct-18 20:00 35.909422 -115.378319 230 11930ft 364kts
08-Oct-18 20:01 35.885984 -115.499131 276 13497ft 382kts
08-Oct-18 20:02 35.889699 -115.630962 275 14623ft 377kts
08-Oct-18 20:03 35.892177 -115.764261 275 17134ft 400kts
08-Oct-18 20:04 35.894800 -115.901076 279 19713ft 411kts
08-Oct-18 20:05 35.942410 -116.023180 318 22105ft 401kts
08-Oct-18 20:06 36.023591 -116.119256 320 23928ft 407kts
08-Oct-18 20:07 36.106855 -116.215770 320 26045ft 417kts
08-Oct-18 20:08 36.192159 -116.314557 320 27970ft 426kts
08-Oct-18 20:09 36.279154 -116.415564 320 29581ft 434kts
08-Oct-18 20:10 36.365823 -116.516551 321 31703ft 425kts
08-Oct-18 20:11 36.450391 -116.615383 321 33887ft 413kts
08-Oct-18 20:12 36.532979 -116.712154 321 35636ft 410kts
08-Oct-18 20:13 36.621621 -116.792799 330 35883ft 401kts
08-Oct-18 20:14 36.717269 -116.865824 331 35881ft 404kts
08-Oct-18 20:15 36.812902 -116.939997 330 35879ft 406kts
08-Oct-18 20:16 36.908393 -117.014581 330 35876ft 407kts
08-Oct-18 20:17 37.004974 -117.088955 330 35874ft 408kts
08-Oct-18 20:18 37.101772 -117.160971 331 35873ft 406kts
08-Oct-18 20:19 37.197838 -117.234432 331 35890ft 406kts
08-Oct-18 20:20 37.293490 -117.308850 327 35889ft 407kts
08-Oct-18 20:21 37.380883 -117.400522 323 35926ft 411kts
08-Oct-18 20:22 37.467743 -117.493388 323 35928ft 412kts
08-Oct-18 20:23 37.544358 -117.602352 314 35931ft 419kts
08-Oct-18 20:24 37.616069 -117.716565 313 35931ft 418kts
08-Oct-18 20:25 37.687797 -117.831538 313 35890ft 417kts
08-Oct-18 20:26 37.758776 -117.947132 313 35880ft 417kts
08-Oct-18 20:27 37.830043 -118.062632 313 35878ft 417kts
08-Oct-18 20:28 37.901354 -118.178062 314 35876ft 417kts
08-Oct-18 20:29 37.970595 -118.289452 313 35908ft 416kts
08-Oct-18 20:30 38.039653 -118.401925 313 35979ft 414kts
08-Oct-18 20:31 38.109603 -118.516469 313 35696ft 406kts
08-Oct-18 20:32 38.176426 -118.627646 314 34577ft 396kts
08-Oct-18 20:33 38.242125 -118.736131 313 33253ft 400kts
08-Oct-18 20:34 38.310355 -118.849236 312 31306ft 410kts
08-Oct-18 20:35 38.380984 -118.966581 312 28974ft 423kts
08-Oct-18 20:36 38.451863 -119.084756 312 26452ft 421kts
08-Oct-18 20:37 38.519732 -119.203426 307 24064ft 411kts
08-Oct-18 20:38 38.582073 -119.324756 308 22230ft 405kts
08-Oct-18 20:39 38.642453 -119.441952 307 20443ft 398kts
08-Oct-18 20:40 38.702596 -119.559024 307 18637ft 391kts
08-Oct-18 20:41 38.762614 -119.672884 306 16842ft 383kts
08-Oct-18 20:42 38.824092 -119.758513 341 16496ft 319kts
08-Oct-18 20:43 38.907855 -119.770787 359 15211ft 301kts
08-Oct-18 20:44 38.989961 -119.771899 0 13979ft 292kts
08-Oct-18 20:45 39.069333 -119.771874 0 12973ft 273kts
08-Oct-18 20:46 39.139082 -119.771733 0 12233ft 251kts
08-Oct-18 20:47 39.205308 -119.771204 1 11007ft 228kts
08-Oct-18 20:48 39.260680 -119.770321 0 9654ft 180kts
08-Oct-18 20:49 39.309515 -119.769989 0 8469ft 170kts
08-Oct-18 20:50 39.353506 -119.769819 0 7425ft 154kts
08-Oct-18 20:51 39.394425 -119.769616 0 6492ft 144kts
08-Oct-18 20:52 39.432529 -119.769440 0 5632ft 130kts
08-Oct-18 20:53 39.467988 -119.769398 359 4847ft 127kts
08-Oct-18 20:54 39.499511 -119.769252 0 4411ft 49kts
08-Oct-18 20:55 39.505061 -119.771652 0 4415ft 15kts
08-Oct-18 20:56 39.505286 -119.773667 179 4418ft 0kts

Navigation Log

Ident Type
Flight plan parsing failed, navigation log unavailable